createdAt,value
2022-10-17T00:00:34.875Z,15.32
2022-10-17T00:03:02.163Z,10.38
2022-10-17T00:05:29.060Z,12.13
2022-10-17T00:07:56.062Z,12.65
2022-10-17T00:10:23.005Z,15.27
2022-10-17T00:12:51.732Z,10.25
2022-10-17T00:15:20.041Z,8.82
2022-10-17T00:17:46.938Z,6.55
2022-10-17T00:20:14.836Z,10.30
2022-10-17T00:22:41.785Z,9.48
2022-10-17T00:25:09.295Z,8.02
2022-10-17T00:27:37.852Z,11.57
2022-10-17T00:30:06.266Z,11.32
2022-10-17T00:32:33.465Z,7.05
2022-10-17T00:35:00.503Z,7.28
2022-10-17T00:37:27.495Z,5.32
2022-10-17T00:39:54.551Z,6.80
2022-10-17T00:42:21.759Z,7.43
2022-10-17T00:44:48.623Z,10.98
2022-10-17T00:47:19.677Z,7.55
2022-10-17T00:49:47.485Z,6.85
2022-10-17T00:52:26.961Z,5.53
2022-10-17T00:55:02.522Z,9.15
2022-10-17T00:57:31.731Z,12.77
2022-10-17T01:00:00.774Z,8.18
2022-10-17T01:02:27.969Z,7.35
2022-10-17T01:04:59.550Z,4.60
2022-10-17T01:07:31.914Z,5.88
2022-10-17T01:10:02.255Z,3.75
2022-10-17T01:12:37.864Z,4.97
2022-10-17T01:15:33.496Z,4.88
2022-10-17T01:18:27.426Z,3.65
2022-10-17T01:21:05.562Z,4.13
2022-10-17T01:23:50.274Z,12.43
2022-10-17T01:26:47.942Z,6.63
2022-10-17T01:29:33.390Z,7.95
2022-10-17T01:32:14.072Z,4.63
2022-10-17T01:34:59.666Z,8.70
2022-10-17T01:37:29.313Z,3.50
2022-10-17T01:40:30.096Z,11.50
2022-10-17T01:43:03.958Z,9.00
2022-10-17T01:45:42.981Z,7.32
2022-10-17T01:48:17.636Z,10.70
2022-10-17T01:50:56.969Z,6.13
2022-10-17T01:53:33.269Z,9.80
2022-10-17T01:56:03.209Z,8.88
2022-10-17T01:58:42.291Z,10.15
2022-10-17T02:01:11.938Z,5.40
2022-10-17T02:03:41.136Z,6.53
2022-10-17T02:06:08.069Z,11.27
2022-10-17T02:08:46.848Z,11.68
2022-10-17T02:11:18.584Z,5.40
2022-10-17T02:14:03.497Z,8.48
2022-10-17T02:16:40.808Z,7.10
2022-10-17T02:19:50.498Z,8.25
2022-10-17T02:22:40.136Z,6.88
2022-10-17T02:25:06.966Z,12.40
2022-10-17T02:27:55.981Z,7.47
2022-10-17T02:30:40.597Z,16.50
2022-10-17T02:33:16.762Z,5.25
2022-10-17T02:35:54.822Z,10.30
2022-10-17T02:38:23.090Z,7.15
2022-10-17T02:40:53.084Z,8.38
2022-10-17T02:43:20.687Z,7.93
2022-10-17T02:45:48.775Z,9.02
2022-10-17T02:48:40.441Z,13.23
2022-10-17T02:51:37.089Z,7.93
2022-10-17T02:54:24.281Z,10.20
2022-10-17T02:56:55.616Z,9.85
2022-10-17T02:59:24.996Z,8.68
2022-10-17T03:01:52.636Z,6.82
2022-10-17T03:04:19.934Z,6.13
2022-10-17T03:06:48.357Z,8.60
2022-10-17T03:09:15.884Z,14.88
2022-10-17T03:11:42.817Z,8.00
2022-10-17T03:14:09.798Z,7.22
2022-10-17T03:16:36.721Z,9.00
2022-10-17T03:19:03.871Z,7.63
2022-10-17T03:21:30.868Z,7.13
2022-10-17T03:23:57.765Z,8.68
2022-10-17T03:26:24.732Z,7.40
2022-10-17T03:28:53.692Z,4.78
2022-10-17T03:31:22.313Z,6.68
2022-10-17T03:33:49.194Z,10.93
2022-10-17T03:36:18.445Z,13.18
2022-10-17T03:38:45.462Z,8.73
2022-10-17T03:41:12.764Z,8.07
2022-10-17T03:43:39.997Z,10.85
2022-10-17T03:46:07.561Z,7.57
2022-10-17T03:48:34.711Z,6.10
2022-10-17T03:51:02.547Z,11.77
2022-10-17T03:53:29.479Z,8.60
2022-10-17T03:55:56.971Z,14.07
2022-10-17T03:58:23.935Z,8.85
2022-10-17T04:00:50.949Z,15.10
2022-10-17T04:03:17.891Z,12.50
2022-10-17T04:05:44.782Z,8.52
2022-10-17T04:08:11.696Z,10.52
2022-10-17T04:10:38.628Z,7.75
2022-10-17T04:13:06.530Z,10.27
2022-10-17T04:15:33.462Z,13.60
2022-10-17T04:18:00.371Z,13.32
2022-10-17T04:20:27.306Z,12.80
2022-10-17T04:22:54.169Z,11.15
2022-10-17T04:25:21.133Z,7.53
2022-10-17T04:27:49.136Z,14.63
2022-10-17T04:30:16.774Z,12.05
2022-10-17T04:32:43.678Z,12.77
2022-10-17T04:35:10.638Z,11.52
2022-10-17T04:37:37.631Z,12.57
2022-10-17T04:40:04.873Z,7.10
2022-10-17T04:42:32.098Z,19.00
2022-10-17T04:44:59.198Z,10.73
2022-10-17T04:47:26.177Z,9.20
2022-10-17T04:49:53.110Z,5.68
2022-10-17T04:52:20.049Z,11.48
2022-10-17T04:54:46.976Z,13.27
2022-10-17T04:57:14.483Z,9.43
2022-10-17T04:59:41.385Z,10.65
2022-10-17T05:02:08.429Z,10.27
2022-10-17T05:04:35.411Z,9.48
2022-10-17T05:07:02.413Z,18.77
2022-10-17T05:09:29.453Z,13.32
2022-10-17T05:11:56.385Z,10.48
2022-10-17T05:14:23.308Z,9.90
2022-10-17T05:16:50.216Z,9.73
2022-10-17T05:19:18.555Z,8.13
2022-10-17T05:21:45.470Z,11.30
2022-10-17T05:24:14.719Z,15.98
2022-10-17T05:26:41.610Z,11.63
2022-10-17T05:29:08.747Z,13.95
2022-10-17T05:31:35.841Z,7.32
2022-10-17T05:34:03.756Z,10.77
2022-10-17T05:36:30.891Z,11.13
2022-10-17T05:38:57.844Z,9.02
2022-10-17T05:41:24.723Z,15.45
2022-10-17T05:43:51.655Z,11.35
2022-10-17T05:46:18.577Z,15.15
2022-10-17T05:48:45.474Z,9.00
2022-10-17T05:51:12.745Z,9.48
2022-10-17T05:53:49.997Z,11.05
2022-10-17T05:56:17.078Z,14.60
2022-10-17T05:58:50.229Z,13.75
2022-10-17T06:01:17.749Z,9.32
2022-10-17T06:03:44.683Z,11.80
2022-10-17T06:06:13.734Z,8.88
2022-10-17T06:08:41.050Z,12.75
2022-10-17T06:11:10.265Z,13.68
2022-10-17T06:13:38.434Z,7.15
2022-10-17T06:16:05.988Z,11.40
2022-10-17T06:18:33.435Z,13.10
2022-10-17T06:21:14.832Z,10.82
2022-10-17T06:23:41.724Z,6.75
2022-10-17T06:26:09.242Z,10.65
2022-10-17T06:28:36.630Z,7.35
2022-10-17T06:31:12.841Z,9.57
2022-10-17T06:33:40.037Z,7.55
2022-10-17T06:36:08.380Z,11.40
2022-10-17T06:38:35.737Z,12.55
2022-10-17T06:41:14.623Z,8.18
2022-10-17T06:43:46.451Z,8.38
2022-10-17T06:46:15.096Z,5.55
2022-10-17T06:48:42.079Z,8.20
2022-10-17T06:51:12.265Z,7.88
2022-10-17T06:53:55.484Z,6.10
2022-10-17T06:56:24.065Z,9.65
2022-10-17T06:58:52.981Z,7.43
2022-10-17T07:01:19.870Z,12.93
2022-10-17T07:03:50.075Z,8.13
2022-10-17T07:06:18.118Z,8.10
2022-10-17T07:08:46.113Z,7.30
2022-10-17T07:11:16.315Z,9.38
2022-10-17T07:13:43.840Z,11.80
2022-10-17T07:16:11.564Z,10.00
2022-10-17T07:18:38.864Z,8.18
2022-10-17T07:21:06.206Z,8.10
2022-10-17T07:23:36.618Z,11.38
2022-10-17T07:26:07.417Z,10.10
2022-10-17T07:28:39.538Z,5.65
2022-10-17T07:31:14.941Z,8.05
2022-10-17T07:33:42.750Z,9.98
2022-10-17T07:36:10.146Z,10.95
2022-10-17T07:38:37.756Z,8.38
2022-10-17T07:41:06.741Z,10.43
2022-10-17T07:43:34.747Z,7.85
2022-10-17T07:46:02.569Z,10.88
2022-10-17T07:48:30.072Z,10.45
2022-10-17T07:50:57.019Z,12.50
2022-10-17T07:53:24.033Z,16.70
2022-10-17T07:55:51.485Z,11.70
2022-10-17T07:58:18.475Z,9.30
2022-10-17T08:00:48.606Z,9.90
2022-10-17T08:03:15.740Z,8.48
2022-10-17T08:05:49.858Z,7.05
2022-10-17T08:08:16.781Z,14.98
2022-10-17T08:10:43.758Z,12.07
2022-10-17T08:13:10.651Z,6.90
2022-10-17T08:15:39.009Z,11.20
2022-10-17T08:18:05.995Z,13.85
2022-10-17T08:20:39.018Z,10.55
2022-10-17T08:23:06.076Z,8.02
2022-10-17T08:25:33.539Z,7.70
2022-10-17T08:28:00.475Z,15.60
2022-10-17T08:30:27.501Z,12.43
2022-10-17T08:32:56.136Z,15.98
2022-10-17T08:35:23.887Z,7.82
2022-10-17T08:37:50.865Z,9.93
2022-10-17T08:40:22.528Z,11.27
2022-10-17T08:43:17.437Z,14.50
2022-10-17T08:46:03.221Z,12.65
2022-10-17T08:48:34.168Z,12.60
2022-10-17T08:53:33.349Z,11.70
2022-10-17T08:56:19.561Z,10.05
2022-10-17T08:58:47.470Z,12.23
2022-10-17T09:01:32.476Z,10.13
2022-10-17T09:04:27.006Z,7.50
2022-10-17T09:07:12.507Z,7.60
2022-10-17T09:10:07.481Z,10.55
2022-10-17T09:12:40.560Z,10.88
2022-10-17T09:15:32.676Z,13.52
2022-10-17T09:18:13.041Z,9.93
2022-10-17T09:20:47.777Z,15.73
2022-10-17T09:23:21.641Z,8.65
2022-10-17T09:25:53.355Z,10.10
2022-10-17T09:28:38.601Z,5.95
2022-10-17T09:31:22.438Z,7.38
2022-10-17T09:33:55.075Z,6.43
2022-10-17T09:36:37.260Z,6.45
2022-10-17T09:39:14.648Z,10.63
2022-10-17T09:44:42.863Z,10.70
2022-10-17T09:47:28.970Z,12.13
2022-10-17T09:49:56.159Z,9.32
2022-10-17T09:52:34.226Z,11.00
2022-10-17T09:55:01.194Z,8.15
2022-10-17T09:57:28.403Z,4.85
2022-10-17T10:00:05.148Z,7.68
2022-10-17T10:02:36.403Z,15.80
2022-10-17T10:05:16.992Z,11.35
2022-10-17T10:08:00.436Z,10.80
2022-10-17T10:10:29.123Z,7.88
2022-10-17T10:13:25.715Z,8.57
2022-10-17T10:15:53.044Z,7.10
2022-10-17T10:18:25.767Z,9.27
2022-10-17T10:21:17.554Z,8.95
2022-10-17T10:24:02.432Z,9.20
2022-10-17T10:26:36.291Z,13.20
2022-10-17T10:29:18.993Z,10.40
2022-10-17T10:31:46.961Z,7.70
2022-10-17T10:34:28.215Z,10.10
2022-10-17T10:37:01.296Z,10.30
2022-10-17T10:39:29.100Z,9.55
2022-10-17T10:41:56.435Z,8.73
2022-10-17T10:44:26.392Z,8.65
2022-10-17T10:47:15.794Z,13.55
2022-10-17T10:49:43.944Z,7.78
2022-10-17T10:52:27.705Z,7.45
2022-10-17T10:55:03.756Z,9.90
2022-10-17T10:57:34.952Z,12.63
2022-10-17T11:00:09.135Z,5.82
2022-10-17T11:02:41.935Z,5.30
2022-10-17T11:05:30.578Z,5.07
2022-10-17T11:08:25.787Z,8.65
2022-10-17T11:11:26.251Z,3.95
2022-10-17T11:14:25.634Z,9.55
2022-10-17T11:17:03.193Z,6.47
2022-10-17T11:19:37.344Z,6.65
2022-10-17T11:22:33.142Z,8.15
2022-10-17T11:25:19.621Z,8.40
2022-10-17T11:27:46.559Z,6.40
2022-10-17T11:30:15.307Z,4.22
2022-10-17T11:32:54.398Z,7.18
2022-10-17T11:35:29.386Z,7.00
2022-10-17T11:38:46.099Z,9.23
2022-10-17T11:41:21.425Z,5.05
2022-10-17T11:43:54.606Z,5.40
2022-10-17T11:46:27.528Z,7.25
2022-10-17T11:49:16.121Z,5.53
2022-10-17T11:52:06.170Z,10.15
2022-10-17T11:54:45.085Z,6.35
2022-10-17T11:57:24.415Z,9.98
2022-10-17T11:59:51.408Z,3.47
2022-10-17T12:02:42.713Z,4.55
2022-10-17T12:05:28.648Z,11.27
2022-10-17T12:08:13.018Z,9.40
2022-10-17T12:10:58.697Z,9.25
2022-10-17T12:13:28.371Z,8.95
2022-10-17T12:15:56.825Z,6.72
2022-10-17T12:18:29.723Z,4.78
2022-10-17T12:21:00.308Z,8.30
2022-10-17T12:23:32.389Z,15.27
2022-10-17T12:26:05.610Z,6.63
2022-10-17T12:28:46.793Z,12.48
2022-10-17T12:31:17.689Z,7.78
2022-10-17T12:33:52.553Z,3.85
2022-10-17T12:36:22.178Z,4.20
2022-10-17T12:38:52.011Z,7.25
2022-10-17T12:41:42.312Z,4.28
2022-10-17T12:44:16.771Z,5.70
2022-10-17T12:46:52.370Z,8.00
2022-10-17T12:49:40.831Z,9.05
2022-10-17T12:52:31.769Z,7.65
2022-10-17T12:55:13.477Z,4.72
2022-10-17T12:58:08.221Z,4.28
2022-10-17T13:01:05.351Z,2.75
2022-10-17T13:03:44.654Z,7.47
2022-10-17T13:06:22.471Z,9.38
2022-10-17T13:09:01.049Z,10.00
2022-10-17T13:11:34.029Z,8.32
2022-10-17T13:14:04.539Z,5.05
2022-10-17T13:16:37.273Z,5.55
2022-10-17T13:19:18.346Z,7.45
2022-10-17T13:24:33.931Z,8.73
2022-10-17T13:27:01.562Z,5.95
2022-10-17T13:29:30.939Z,4.22
2022-10-17T13:32:04.186Z,4.05
2022-10-17T13:34:32.620Z,14.32
2022-10-17T13:37:02.491Z,11.63
2022-10-17T13:39:54.539Z,10.05
2022-10-17T13:42:29.446Z,7.45
2022-10-17T13:44:58.493Z,8.15
2022-10-17T13:47:28.592Z,6.63
2022-10-17T13:49:57.670Z,8.77
2022-10-17T13:52:30.417Z,4.82
2022-10-17T13:55:17.538Z,4.45
2022-10-17T13:57:44.672Z,5.60
2022-10-17T14:00:20.150Z,8.90
2022-10-17T14:02:48.438Z,8.20
2022-10-17T14:05:21.051Z,9.68
2022-10-17T14:08:13.402Z,8.38
2022-10-17T14:10:43.374Z,7.82
2022-10-17T14:13:25.970Z,12.35
2022-10-17T14:15:55.386Z,7.00
2022-10-17T14:18:35.769Z,17.40
2022-10-17T14:21:40.583Z,11.43
2022-10-17T14:24:12.001Z,12.77
2022-10-17T14:26:48.352Z,9.57
2022-10-17T14:29:51.733Z,7.72
2022-10-17T14:32:19.746Z,17.00
2022-10-17T14:34:47.010Z,33.80
2022-10-17T14:37:32.255Z,34.65
2022-10-17T14:40:01.085Z,36.40
2022-10-17T14:42:28.189Z,32.38
2022-10-17T14:44:58.433Z,25.00
2022-10-17T14:47:42.842Z,25.52
2022-10-17T14:50:10.746Z,16.70
2022-10-17T14:52:39.125Z,27.13
2022-10-17T14:55:25.763Z,15.77
2022-10-17T14:57:52.757Z,18.75
2022-10-17T15:00:21.543Z,14.05
2022-10-17T15:02:49.904Z,10.50
2022-10-17T15:05:17.690Z,12.25
2022-10-17T15:07:44.702Z,18.73
2022-10-17T15:10:36.710Z,20.05
2022-10-17T15:13:26.740Z,21.92
2022-10-17T15:15:52.565Z,25.23
2022-10-17T15:18:19.770Z,30.00
2022-10-17T15:20:46.711Z,26.52
2022-10-17T15:23:13.599Z,19.98
2022-10-17T15:25:40.531Z,35.47
2022-10-17T15:28:08.089Z,34.42
2022-10-17T15:30:36.469Z,36.88
2022-10-17T15:33:03.552Z,51.92
2022-10-17T15:35:31.079Z,50.45
2022-10-17T15:37:57.975Z,77.88
2022-10-17T15:40:31.034Z,49.83
2022-10-17T15:42:58.277Z,40.08
2022-10-17T15:45:25.366Z,43.53
2022-10-17T15:50:36.899Z,27.88
2022-10-17T15:53:06.016Z,27.58
2022-10-17T15:55:33.004Z,26.55
2022-10-17T15:57:59.969Z,26.58
2022-10-17T16:00:26.935Z,26.23
2022-10-17T16:02:54.017Z,35.70
2022-10-17T16:05:23.720Z,26.88
2022-10-17T16:07:51.502Z,28.20
2022-10-17T16:10:19.471Z,32.38
2022-10-17T16:12:46.871Z,37.35
2022-10-17T16:15:23.036Z,29.00
2022-10-17T16:17:54.487Z,37.17
2022-10-17T16:20:22.016Z,30.98
2022-10-17T16:22:49.532Z,26.33
2022-10-17T16:25:22.533Z,29.48
2022-10-17T16:27:51.978Z,29.83
2022-10-17T16:30:19.730Z,32.08
2022-10-17T16:32:47.098Z,39.50
2022-10-17T16:35:20.129Z,42.60
2022-10-17T16:37:47.794Z,32.75
2022-10-17T16:40:15.474Z,26.52
2022-10-17T16:42:42.423Z,35.08
2022-10-17T16:45:11.296Z,28.50
2022-10-17T16:47:38.205Z,30.75
2022-10-17T16:50:05.354Z,27.90
2022-10-17T16:52:32.473Z,22.13
2022-10-17T16:54:59.591Z,33.03
2022-10-17T16:57:26.518Z,25.63
2022-10-17T16:59:53.461Z,30.00
2022-10-17T17:02:21.407Z,35.50
2022-10-17T17:04:48.577Z,44.88
2022-10-17T17:07:17.509Z,72.18
2022-10-17T17:09:44.406Z,88.70
2022-10-17T17:12:11.418Z,68.05
2022-10-17T17:14:39.078Z,49.08
2022-10-17T17:17:07.654Z,30.52
2022-10-17T17:19:39.195Z,26.50
2022-10-17T17:22:06.101Z,25.38
2022-10-17T17:24:33.240Z,33.25
2022-10-17T17:27:00.217Z,27.73
2022-10-17T17:29:27.240Z,28.55
2022-10-17T17:31:54.165Z,22.58
2022-10-17T17:34:21.078Z,31.90
2022-10-17T17:36:48.026Z,23.40
2022-10-17T17:39:15.823Z,20.77
2022-10-17T17:41:43.994Z,24.15
2022-10-17T17:44:15.684Z,32.95
2022-10-17T17:46:44.257Z,62.08
2022-10-17T17:49:11.729Z,55.13
2022-10-17T17:51:39.061Z,49.83
2022-10-17T17:54:06.040Z,36.17
2022-10-17T17:56:32.918Z,45.67
2022-10-17T17:59:02.317Z,52.75
2022-10-17T18:01:31.983Z,39.22
2022-10-17T18:03:59.739Z,30.52
2022-10-17T18:06:27.453Z,23.60
2022-10-17T18:08:57.847Z,21.27
2022-10-17T18:11:25.959Z,26.95
2022-10-17T18:14:04.096Z,29.85
2022-10-17T18:16:32.622Z,44.58
2022-10-17T18:19:05.759Z,51.70
2022-10-17T18:21:34.471Z,48.70
2022-10-17T18:24:02.021Z,43.95
2022-10-17T18:26:29.106Z,60.10
2022-10-17T18:28:56.681Z,38.58
2022-10-17T18:31:28.391Z,34.70
2022-10-17T18:33:57.386Z,30.58
2022-10-17T18:36:26.260Z,33.30
2022-10-17T18:38:54.396Z,38.10
2022-10-17T18:41:23.199Z,40.45
2022-10-17T18:43:51.448Z,50.88
2022-10-17T18:46:21.370Z,44.60
2022-10-17T18:48:49.711Z,37.65
2022-10-17T18:51:19.399Z,33.28
2022-10-17T18:53:49.738Z,33.15
2022-10-17T18:56:18.899Z,26.63
2022-10-17T18:58:46.725Z,22.55
2022-10-17T19:01:16.793Z,18.90
2022-10-17T19:03:45.691Z,23.20
2022-10-17T19:06:14.804Z,15.77
2022-10-17T19:08:42.910Z,23.08
2022-10-17T19:11:17.515Z,20.05
2022-10-17T19:16:16.424Z,20.58
2022-10-17T19:18:43.833Z,30.33
2022-10-17T19:21:11.833Z,31.70
2022-10-17T19:23:39.148Z,34.75
2022-10-17T19:26:11.974Z,30.77
2022-10-17T19:28:42.198Z,24.65
2022-10-17T19:31:11.984Z,23.05
2022-10-17T19:33:40.935Z,16.83
2022-10-17T19:36:11.397Z,14.32
2022-10-17T19:38:38.270Z,14.52
2022-10-17T19:41:10.697Z,20.67
2022-10-17T19:43:38.804Z,11.75
2022-10-17T19:46:08.455Z,12.77
2022-10-17T19:48:37.139Z,7.47
2022-10-17T19:51:05.317Z,11.77
2022-10-17T19:53:32.323Z,10.57
2022-10-17T19:55:59.817Z,16.77
2022-10-17T19:58:27.460Z,9.75
2022-10-17T20:00:58.256Z,13.90
2022-10-17T20:03:25.672Z,10.85
2022-10-17T20:05:52.658Z,11.48
2022-10-17T20:08:19.731Z,12.13
2022-10-17T20:10:46.789Z,13.93
2022-10-17T20:13:14.762Z,6.10
2022-10-17T20:15:41.731Z,7.55
2022-10-17T20:18:12.228Z,10.75
2022-10-17T20:20:39.205Z,15.00
2022-10-17T20:23:06.139Z,8.05
2022-10-17T20:25:34.596Z,11.93
2022-10-17T20:28:01.561Z,10.10
2022-10-17T20:30:28.504Z,11.38
2022-10-17T20:32:55.655Z,7.72
2022-10-17T20:35:23.088Z,11.52
2022-10-17T20:37:50.548Z,11.48
2022-10-17T20:40:34.150Z,14.82
2022-10-17T20:43:02.575Z,9.35
2022-10-17T20:45:43.780Z,8.45
2022-10-17T20:48:16.671Z,12.27
2022-10-17T20:50:44.236Z,6.20
2022-10-17T20:56:04.929Z,10.63
2022-10-17T20:58:31.886Z,5.93
2022-10-17T21:00:58.751Z,7.38
2022-10-17T21:03:26.687Z,11.18
2022-10-17T21:05:53.622Z,6.00
2022-10-17T21:08:20.538Z,13.05
2022-10-17T21:10:47.444Z,10.52
2022-10-17T21:13:14.420Z,8.30
2022-10-17T21:15:41.327Z,5.72
2022-10-17T21:18:08.229Z,8.27
2022-10-17T21:20:35.153Z,10.52
2022-10-17T21:23:02.119Z,8.48
2022-10-17T21:25:29.059Z,13.88
2022-10-17T21:27:55.983Z,12.48
2022-10-17T21:30:22.947Z,10.50
2022-10-17T21:32:54.335Z,8.93
2022-10-17T21:35:21.511Z,11.82
2022-10-17T21:37:48.425Z,11.15
2022-10-17T21:40:15.421Z,5.97
2022-10-17T21:42:42.379Z,8.02
2022-10-17T21:45:15.399Z,10.57
2022-10-17T21:47:55.036Z,7.45
2022-10-17T21:50:30.113Z,12.02
2022-10-17T21:52:58.702Z,10.93
2022-10-17T21:55:25.596Z,7.65
2022-10-17T21:57:52.493Z,8.55
2022-10-17T22:00:19.398Z,7.78
2022-10-17T22:02:46.270Z,6.55
2022-10-17T22:05:13.229Z,11.38
2022-10-17T22:07:40.173Z,9.73
2022-10-17T22:10:07.390Z,5.35
2022-10-17T22:12:34.321Z,6.68
2022-10-17T22:15:01.323Z,7.30
2022-10-17T22:17:28.418Z,8.55
2022-10-17T22:19:55.460Z,8.80
2022-10-17T22:22:22.409Z,9.43
2022-10-17T22:24:49.317Z,10.13
2022-10-17T22:27:16.202Z,7.40
2022-10-17T22:29:43.094Z,5.43
2022-10-17T22:32:10.574Z,5.70
2022-10-17T22:34:37.530Z,4.60
2022-10-17T22:37:04.418Z,8.40
2022-10-17T22:39:31.323Z,6.32
2022-10-17T22:41:58.351Z,9.35
2022-10-17T22:44:25.190Z,4.20
2022-10-17T22:46:52.077Z,7.93
2022-10-17T22:49:19.374Z,5.82
2022-10-17T22:51:46.267Z,9.65
2022-10-17T22:54:13.156Z,7.03
2022-10-17T22:56:40.148Z,7.82
2022-10-17T22:59:07.056Z,8.45
2022-10-17T23:01:34.363Z,6.50
2022-10-17T23:04:01.338Z,5.18
2022-10-17T23:06:28.255Z,5.32
2022-10-17T23:08:55.613Z,6.65
2022-10-17T23:11:22.535Z,7.85
2022-10-17T23:13:49.826Z,4.20
2022-10-17T23:16:16.759Z,10.82
2022-10-17T23:18:44.292Z,3.88
2022-10-17T23:21:11.804Z,7.13
2022-10-17T23:23:38.794Z,3.35
2022-10-17T23:26:11.114Z,6.13
2022-10-17T23:28:38.316Z,8.60
2022-10-17T23:31:11.267Z,8.27
2022-10-17T23:33:41.219Z,7.95
2022-10-17T23:36:10.692Z,9.73
2022-10-17T23:38:38.268Z,14.77
2022-10-17T23:41:05.324Z,11.20
2022-10-17T23:43:34.238Z,8.50
2022-10-17T23:46:02.405Z,10.38
2022-10-17T23:48:29.992Z,10.07
2022-10-17T23:50:57.378Z,8.57
2022-10-17T23:53:24.960Z,9.57
2022-10-17T23:55:52.265Z,13.57
2022-10-17T23:58:19.161Z,22.70
